Airfield :
LOGIN :

Register | Disclaimer

   EN    FR    IT 

 










Legend :    VFR   Marginal VFR   IFR   Intensive IFR   Very Intensive IFR
Visi :
Ceiling :
>= 8 km
>= 3000ft
5 to 8 km
1000 to 3000 ft
1500m to 5 km
500 to 1000 ft
800 to 1500m
200 to 500 ft
< 800m
< 200 ft
Symbols :   Thunderstorms  Fog  Heavy snow  Heavy precipitations  Wind > 20 kt
SIGMETs :     Misc.  Thunderstorms  Icing  Turbulence  Mountain Waves  Volcanic Ashes






- Airport Elevation : 386 ft
- IATA code : QOE


ETNN - Nörvenich Airforce Base

CURRENT METAR :
  • 120020Z 20008KT 9999 FEW030 05/02 Q1003 BLU+

EXPIRED METARs :
  • 112320Z 20006KT 9999 FEW030 05/02 Q1003 BLU+
  • 112220Z 19006KT 9999 FEW030 SCT050 05/02 Q1003 BLU+

TAF TAF ETNN
Valid from the 12 at 00:00 until the 12 at 09:00 UTC


112300Z 1200/1209 20007KT 8000 NSW SCT030
TEMPO 1202/1209 24015G25KT 3000 SHRAGS SCT010 BKN020CB
PROB30 1207/1209 25015G30KT 200 TSGS BKN010 BKN020CB BY ETGL



MET'MAP, your aeronautical weather chart ! - Copyright ORBIFLY December 2007 - Disclaimer

ORBIFLY MET'MAP TEAM :

Programming & Development : Alexandra Zaïnal
Concept & Development : Baudouin d'Aumeries
Co-Development & Prog : Marc-Olivier Méhu
Technical & hardware support : Manuel Goepfert

Contact : metmap@orbifly.com




SOURCES & CREDITS :

   NOAA